Latest Weather Observations for Tibooburra Airport

IDN60801

Issued at 6:52 pm EST Wednesday 19 September 2018 (issued every 10 minutes, with the page automatically refreshed every 10 minutes)

About weather observations | Map of weather stations | Latest weather observations for NSW | Other Formats
Station Details ID: 046126 Name: TIBOOBURRA AIRPORT Lat: -29.44 Lon: 142.06 Height: 176.4 m
Data from the previous 72 hours. | See also: Recent months at Tibooburra Airport
Date/Time
EST
Temp
°C
App
Temp
°C
Dew
Point
°C
Rel
Hum
%
Delta-T
°C
Wind Press
QNH
hPa
Press
MSL
hPa
Rain since
9am
mm
Dir  Spd
km/h
Gust
km/h
Spd
kts
Gust
kts
19/06:30pm 17.4 10.1 -6.4 19 9.1 SW 24 32 13 17 1018.6 1018.2 0.0
19/06:00pm 18.4 11.0 -7.1 17 9.7 SW 24 32 13 17 1018.2 1017.8 0.0
19/05:30pm 19.0 11.7 -6.6 17 9.9 SW 24 32 13 17 1017.8 1017.4 0.0
19/05:00pm 19.6 12.6 -7.7 15 10.4 SW 22 32 12 17 1017.5 1017.1 0.0
19/04:30pm 19.8 12.0 -7.5 15 10.4 SSW 26 35 14 19 1017.2 1016.8 0.0
19/04:00pm 19.8 11.7 -6.7 16 10.3 SSW 28 41 15 22 1017.1 1016.6 0.0
19/03:30pm 19.7 12.1 -6.0 17 10.1 SSW 26 39 14 21 1016.9 1016.4 0.0
19/03:00pm 19.5 12.0 -4.7 19 9.7 SW 26 35 14 19 1017.0 1016.5 0.0
19/02:39pm 19.9 12.1 -3.7 20 9.8 SSW 28 46 15 25 1017.0 1016.5 0.0
19/02:30pm 19.3 11.8 -4.2 20 9.6 SSW 26 37 14 20 1017.0 1016.5 0.0
19/02:00pm 19.5 11.5 -5.4 18 9.9 S 28 39 15 21 1017.3 1016.9 0.0
19/01:30pm 18.4 11.1 -6.3 18 9.5 SSW 24 37 13 20 1017.7 1017.3 0.0
19/01:00pm 18.3 10.7 -5.7 19 9.3 SSW 26 43 14 23 1018.0 1017.6 0.0
19/12:30pm 17.7 9.8 -4.9 21 8.9 S 28 37 15 20 1018.4 1018.0 0.0
19/12:00pm 16.9 8.8 -3.2 25 8.1 S 30 44 16 24 1018.8 1018.4 0.0
19/11:30am 16.3 8.3 -2.7 27 7.7 S 30 41 16 22 1019.1 1018.7 0.0
19/11:00am 16.3 7.9 -2.2 28 7.6 S 32 43 17 23 1019.4 1019.0 0.0
19/10:30am 15.5 6.6 -2.0 30 7.2 S 35 44 19 24 1019.4 1019.0 0.0
19/10:00am 14.8 5.6 -1.3 33 6.6 S 37 50 20 27 1019.4 1019.0 0.0
19/09:30am 14.8 6.4 -0.9 34 6.6 S 33 46 18 25 1019.7 1019.3 0.0
19/09:00am 13.6 4.9 -0.8 37 5.9 S 35 43 19 23 1019.6 1019.2 0.0
19/08:30am 12.9 4.6 0.0 41 5.4 S 33 46 18 25 1019.5 1019.1 0.0
19/08:00am 12.2 3.6 0.3 44 5.0 S 35 44 19 24 1019.2 1018.8 0.0
19/07:30am 12.0 4.1 1.1 47 4.6 S 32 39 17 21 1018.2 1017.8 0.0
19/07:00am 11.8 3.8 1.4 49 4.4 S 33 44 18 24 1017.9 1017.5 0.0
19/06:30am 12.1 4.4 2.3 51 4.3 S 32 39 17 21 1017.5 1017.1 0.0
19/06:10am 12.2 3.9 2.4 51 4.3 S 35 54 19 29 1017.0 1016.5 0.0
19/06:00am 12.3 4.7 3.0 53 4.1 S 32 44 17 24 1016.6 1016.1 0.0
19/05:30am 12.5 4.3 2.9 52 4.3 S 35 48 19 26 1015.6 1015.2 0.0
19/05:00am 12.9 5.2 2.5 49 4.6 S 32 43 17 23 1014.9 1014.5 0.0
19/04:30am 13.2 5.2 1.8 46 5.0 S 33 43 18 23 1014.3 1013.9 0.0
19/04:00am 13.7 5.0 1.7 44 5.2 SSW 37 48 20 26 1014.5 1014.1 0.0
19/03:30am 14.0 5.2 1.3 42 5.5 SSW 37 46 20 25 1013.9 1013.5 0.0
19/03:00am 14.5 5.7 1.1 40 5.8 SSW 37 46 20 25 1013.5 1013.1 0.0
19/02:41am 15.0 5.0 0.8 38 6.2 SSW 43 61 23 33 1013.5 1013.1 0.0
19/02:30am 15.3 6.0 0.7 37 6.3 SSW 39 52 21 28 1013.4 1013.0 0.0
19/02:00am 15.7 7.6 0.7 36 6.5 SSW 33 48 18 26 1013.7 1013.3 0.0
19/01:30am 15.8 7.2 0.0 34 6.8 SW 35 46 19 25 1013.8 1013.4 0.0
19/01:00am 16.0 7.3 -0.7 32 7.1 SW 35 43 19 23 1013.6 1013.2 0.0
19/12:30am 16.8 8.3 -6.9 19 8.9 WSW 30 63 16 34 1013.3 1012.9 0.0
19/12:27am 17.2 10.1 -13.5 11 10.1 W 20 63 11 34 1013.1 1012.7 0.0
19/12:00am 18.7 13.5 -17.8 7 11.2 W 9 11 5 6 1012.7 1012.3 0.0
 
Date/Time
EST
Temp
°C
App
Temp
°C
Dew
Point
°C
Rel
Hum
%
Delta-T
°C
Wind Press
QNH
hPa
Press
MSL
hPa
Rain since
9am
mm
Dir  Spd
km/h
Gust
km/h
Spd
kts
Gust
kts
18/11:30pm 18.9 13.2 -19.4 6 11.4 W 11 11 6 6 1012.7 1012.3 0.0
18/11:00pm 19.1 13.5 -19.3 6 11.5 W 11 13 6 7 1012.7 1012.3 0.0
18/10:30pm 19.7 13.7 -18.8 6 11.8 W 13 13 7 7 1013.0 1012.6 0.0
18/10:00pm 20.1 14.9 -18.6 6 11.9 W 9 11 5 6 1012.7 1012.3 0.0
18/09:30pm 20.8 14.1 -18.0 6 12.2 WNW 17 19 9 10 1012.9 1012.5 0.0
18/09:00pm 20.5 14.9 -18.3 6 12.1 WNW 11 13 6 7 1012.8 1012.4 0.0
18/08:30pm 21.0 14.9 -20.0 5 12.5 WNW 13 15 7 8 1013.0 1012.6 0.0
18/08:00pm 20.9 14.8 -20.1 5 12.4 WNW 13 15 7 8 1012.7 1012.3 0.0
18/07:30pm 21.5 15.8 -19.7 5 12.7 WNW 11 13 6 7 1012.4 1012.0 0.0
18/07:00pm 22.5 16.5 -19.0 5 13.1 WNW 13 15 7 8 1012.4 1012.0 0.0
18/06:30pm 24.2 17.8 -20.4 4 14.1 WNW 15 17 8 9 1012.0 1011.5 0.0
18/06:00pm 26.0 18.7 -22.4 3 15.1 WNW 19 24 10 13 1011.9 1011.4 0.0
18/05:30pm 27.0 19.7 -21.7 3 15.6 NW 19 26 10 14 1011.7 1011.2 0.0
18/05:00pm 27.0 19.2 -21.7 3 15.6 NW 22 32 12 17 1011.8 1011.3 0.0
18/04:30pm 27.1 18.9 -21.7 3 15.6 NW 24 33 13 18 1011.7 1011.2 0.0
18/04:00pm 27.5 20.1 -21.4 3 15.8 NNW 20 32 11 17 1011.7 1011.2 0.0
18/03:30pm 26.9 19.2 -18.5 4 15.3 NNW 22 30 12 16 1012.0 1011.5 0.0
18/03:00pm 26.9 19.6 -18.5 4 15.3 NW 20 28 11 15 1012.2 1011.7 0.0
18/02:30pm 27.2 19.5 -18.3 4 15.5 NW 22 37 12 20 1012.8 1012.4 0.0
18/02:00pm 26.7 19.4 -18.6 4 15.2 NW 20 30 11 16 1013.3 1012.9 0.0
18/01:30pm 26.0 18.6 -19.1 4 14.9 NW 20 35 11 19 1013.8 1013.4 0.0
18/01:00pm 25.4 17.0 -16.9 5 14.4 NW 26 37 14 20 1014.5 1014.1 0.0
18/12:30pm 25.1 17.1 -17.1 5 14.3 NW 24 37 13 20 1015.2 1014.8 0.0
18/12:00pm 24.9 16.1 -17.3 5 14.2 NW 28 37 15 20 1015.7 1015.3 0.0
18/11:30am 24.0 16.0 -15.7 6 13.6 NNW 24 33 13 18 1016.1 1015.7 0.0
18/11:00am 23.3 14.9 -16.2 6 13.3 NNW 26 35 14 19 1016.6 1016.1 0.0
18/10:30am 22.9 15.4 -14.7 7 12.9 N 22 28 12 15 1016.8 1016.3 0.0
18/10:00am 21.9 14.8 -13.8 8 12.3 N 20 32 11 17 1017.1 1016.6 0.0
18/09:30am 19.7 12.6 -14.0 9 11.3 N 20 28 11 15 1017.1 1016.6 0.0
18/09:00am 17.2 10.7 -13.5 11 10.0 N 17 22 9 12 1017.1 1016.6 0.0
18/08:30am 15.4 9.3 -12.8 13 9.2 NNE 15 20 8 11 1016.9 1016.4 0.0
18/08:00am 13.7 8.3 -13.3 14 8.4 NNE 11 13 6 7 1017.0 1016.5 0.0
18/07:30am 12.6 7.7 -12.5 16 7.9 NNE 9 11 5 6 1016.9 1016.4 0.0
18/07:00am 9.7 4.8 -12.1 20 6.6 NNE 9 9 5 5 1017.0 1016.5 0.0
18/06:30am 7.9 4.7 -11.9 23 5.9 CALM 0 0 0 0 1016.9 1016.4 0.0
18/06:00am 7.3 4.1 -12.4 23 5.7 CALM 0 0 0 0 1017.0 1016.5 0.0
18/05:30am 9.3 4.3 -13.1 19 6.6 N 9 9 5 5 1016.5 1016.0 0.0
18/05:00am 7.8 3.8 -12.0 23 5.8 N 4 7 2 4 1016.1 1015.7 0.0
18/04:30am 7.5 4.3 -12.8 22 5.9 CALM 0 0 0 0 1016.0 1015.6 0.0
18/04:00am 11.2 5.9 -12.2 18 7.2 N 11 11 6 6 1016.0 1015.6 0.0
18/03:30am 11.4 5.7 -12.0 18 7.3 N 13 13 7 7 1015.9 1015.5 0.0
18/03:00am 11.2 5.1 -12.2 18 7.2 N 15 17 8 9 1016.1 1015.7 0.0
18/02:30am 11.1 5.4 -12.3 18 7.2 N 13 15 7 8 1016.5 1016.0 0.0
18/02:00am 11.6 5.9 -11.9 18 7.4 N 13 15 7 8 1016.7 1016.2 0.0
18/01:30am 12.1 6.4 -12.2 17 7.6 NNE 13 13 7 7 1017.2 1016.8 0.0
18/01:00am 12.8 7.5 -12.4 16 7.9 NNE 11 13 6 7 1017.7 1017.3 0.0
18/12:30am 12.8 7.5 -12.4 16 8.0 NNE 11 11 6 6 1017.8 1017.4 0.0
18/12:00am 12.8 7.5 -12.4 16 7.9 NNE 11 11 6 6 1018.0 1017.6 0.0
 
Date/Time
EST
Temp
°C
App
Temp
°C
Dew
Point
°C
Rel
Hum
%
Delta-T
°C
Wind Press
QNH
hPa
Press
MSL
hPa
Rain since
9am
mm
Dir  Spd
km/h
Gust
km/h
Spd
kts
Gust
kts
17/11:30pm 13.1 8.2 -12.1 16 8.0 NNE 9 11 5 6 1018.0 1017.6 0.0
17/11:00pm 12.4 7.1 -12.7 16 7.8 NE 11 13 6 7 1018.1 1017.7 0.0
17/10:30pm 12.6 7.2 -13.3 15 8.0 ENE 11 13 6 7 1018.2 1017.8 0.0
17/10:00pm 13.2 8.2 -13.7 14 8.3 ENE 9 11 5 6 1018.4 1018.0 0.0
17/09:30pm 13.7 8.7 -13.3 14 8.5 ENE 9 11 5 6 1018.5 1018.1 0.0
17/09:00pm 13.4 8.7 -14.4 13 8.4 ENE 7 9 4 5 1018.7 1018.3 0.0
17/08:30pm 14.8 8.7 -13.3 13 8.9 NE 15 17 8 9 1018.2 1017.8 0.0
17/08:00pm 15.7 9.6 -13.6 12 9.4 NE 15 17 8 9 1018.3 1017.9 0.0
17/07:30pm 15.9 10.1 -14.5 11 9.6 NE 13 15 7 8 1018.1 1017.7 0.0
17/07:00pm 17.4 12.0 -14.5 10 10.2 NE 11 13 6 7 1018.2 1017.8 0.0
17/06:30pm 18.9 14.2 -14.6 9 11.0 NNE 7 11 4 6 1018.2 1017.8 0.0
17/06:00pm 20.1 14.3 -15.1 8 11.6 NNE 13 17 7 9 1017.8 1017.4 0.0
17/05:30pm 20.7 15.3 -14.7 8 11.9 NE 11 17 6 9 1017.7 1017.3 0.0
17/05:00pm 20.8 15.0 -14.6 8 11.9 N 13 20 7 11 1017.7 1017.3 0.0
17/04:30pm 21.0 14.4 -14.5 8 12.0 NE 17 22 9 12 1017.8 1017.4 0.0
17/04:00pm 21.0 13.9 -14.5 8 12.0 NNE 20 28 11 15 1018.0 1017.6 0.0
17/03:30pm 20.9 14.3 -14.5 8 11.9 NE 17 24 9 13 1018.2 1017.8 0.0
17/03:00pm 20.5 13.5 -14.8 8 11.7 NNE 19 28 10 15 1018.6 1018.2 0.0
17/02:30pm 20.4 13.9 -13.5 9 11.6 NNE 17 28 9 15 1018.9 1018.5 0.0
17/02:00pm 19.8 13.6 -13.9 9 11.3 NNE 15 26 8 14 1019.4 1019.0 0.0
17/01:30pm 19.7 13.2 -14.0 9 11.3 NE 17 30 9 16 1020.0 1019.6 0.0
17/01:00pm 19.2 12.3 -13.1 10 10.9 NNE 19 30 10 16 1020.7 1020.3 0.0
17/12:30pm 18.6 11.5 -13.6 10 10.7 NE 20 28 11 15 1021.4 1021.0 0.0
17/12:00pm 17.9 10.9 -11.9 12 10.1 NE 20 32 11 17 1022.2 1021.8 0.0
17/11:30am 17.1 10.1 -11.5 13 9.8 NE 20 28 11 15 1022.7 1022.3 0.0
17/11:00am 17.0 9.7 -10.7 14 9.6 NE 22 30 12 16 1022.9 1022.5 0.0
17/10:30am 16.3 8.2 -11.2 14 9.3 ENE 26 37 14 20 1023.4 1023.0 0.0
17/10:00am 16.4 7.7 -9.4 16 9.1 ENE 30 39 16 21 1023.5 1023.1 0.0
17/09:30am 14.9 6.3 -8.5 19 8.3 ENE 30 35 16 19 1023.7 1023.3 0.0
17/09:00am 13.4 5.2 -8.4 21 7.5 ENE 28 35 15 19 1023.9 1023.5 0.0
17/08:30am 12.4 5.0 -7.6 24 7.0 E 24 30 13 16 1023.9 1023.5 0.0
17/08:00am 10.2 4.1 -7.5 28 6.0 E 17 20 9 11 1023.8 1023.4 0.0
17/07:30am 7.9 2.9 -7.7 32 5.1 E 11 13 6 7 1023.6 1023.2 0.0
17/07:00am 6.2 0.8 -8.1 35 4.5 E 13 15 7 8 1023.2 1022.8 0.0
17/06:30am 5.1 -0.7 -8.4 37 4.2 E 15 15 8 8 1022.8 1022.4 0.0
17/06:00am 5.4 0.0 -8.4 36 4.3 E 13 15 7 8 1022.8 1022.4 0.0
17/05:30am 5.9 0.9 -8.4 35 4.5 ESE 11 13 6 7 1022.5 1022.1 0.0
17/05:00am 6.5 1.5 -8.2 34 4.7 ESE 11 11 6 6 1022.4 1022.0 0.0
17/04:30am 7.2 2.2 -8.0 33 4.9 ESE 11 11 6 6 1022.4 1022.0 0.0
17/04:00am 7.0 2.8 -7.8 34 4.8 ESE 7 7 4 4 1022.5 1022.1 0.0
17/03:30am 6.2 1.9 -8.8 33 4.7 SE 7 9 4 5 1022.4 1022.0 0.0
17/03:00am 6.9 2.8 -8.2 33 4.8 S 6 7 3 4 1022.7 1022.3 0.0
17/02:30am 7.3 4.0 -8.7 31 5.1 S 2 7 1 4 1022.9 1022.5 0.0
17/02:00am 7.4 4.0 -9.4 29 5.2 S 2 6 1 3 1023.1 1022.7 0.0
17/01:30am 8.1 3.8 -8.8 29 5.4 SSE 7 9 4 5 1023.2 1022.8 0.0
17/01:00am 8.1 4.0 -9.3 28 5.5 SSE 6 9 3 5 1023.5 1023.1 0.0
17/12:30am 8.8 4.1 -9.1 27 5.8 SSE 9 9 5 5 1023.7 1023.3 0.0
17/12:00am 9.4 5.1 -8.6 27 5.9 SSE 7 9 4 5 1023.7 1023.3 0.0
 
Date/Time
EST
Temp
°C
App
Temp
°C
Dew
Point
°C
Rel
Hum
%
Delta-T
°C
Wind Press
QNH
hPa
Press
MSL
hPa
Rain since
9am
mm
Dir  Spd
km/h
Gust
km/h
Spd
kts
Gust
kts
16/11:30pm 9.6 5.5 -8.5 27 6.0 SE 6 9 3 5 1023.8 1023.4 0.0
16/11:00pm 9.2 4.9 -9.3 26 5.9 S 7 9 4 5 1023.9 1023.5 0.0
16/10:30pm 9.9 5.2 -9.7 24 6.3 SSE 9 11 5 6 1024.0 1023.6 0.0
16/10:00pm 10.9 5.8 -8.8 24 6.5 SSE 11 13 6 7 1024.0 1023.6 0.0
16/09:30pm 11.6 6.2 -8.8 23 6.9 SSE 13 17 7 9 1023.8 1023.4 0.0
16/09:00pm 11.4 6.3 -9.5 22 6.9 SSE 11 13 6 7 1024.0 1023.6 0.0
16/08:30pm 12.1 7.0 -9.5 21 7.2 SSE 11 13 6 7 1023.8 1023.4 0.0
16/08:00pm 12.6 7.5 -9.7 20 7.4 SSE 11 13 6 7 1023.6 1023.2 0.0
16/07:30pm 13.5 8.0 -9.6 19 7.8 SSE 13 15 7 8 1023.4 1023.0 0.0
16/07:00pm 14.1 8.6 -9.8 18 8.1 SSE 13 20 7 11 1023.1 1022.7 0.0

Other Formats:

Comma delimited format used in spreadsheet applications
http://www.bom.gov.au/fwo/IDN60801/IDN60801.95485.axf

JavaScript Object Notation format (JSON) in row-major order
http://www.bom.gov.au/fwo/IDN60801/IDN60801.95485.json